Time;durP1;ratioP1;P1;durP2;ratioP2;P2;SDS_P1;SDS_P2;PMS_P1;PMS_P2;Temp;Humidity;BMP_temperature;BMP_pressure;BME280_temperature;BME280_humidity;BME280_pressure;Samples;Min_cycle;Max_cycle;Signal;HPM_P1;HPM_P2
2023/11/26 00:01:41;;;;;;;1999.90;999.90;;;;;;;-0.09;92.21;93272.22;5113678;28;20485;-65
2023/11/26 00:04:10;;;;;;;1999.90;999.90;;;;;;;-0.02;92.29;93272.75;5113737;28;20405;-61
2023/11/26 00:06:43;;;;;;;1999.90;999.90;;;;;;;0.01;89.38;93284.63;5113411;28;20082;-64
2023/11/26 00:09:10;;;;;;;1999.90;999.90;;;;;;;-0.06;89.36;93266.94;5113693;28;20077;-62
2023/11/26 00:11:37;;;;;;;1999.90;999.90;;;;;;;-0.04;90.05;93270.28;5113742;28;20151;-64
2023/11/26 00:14:05;;;;;;;1999.90;999.90;;;;;;;-0.03;89.97;93261.66;5113598;28;20482;-60
2023/11/26 00:16:37;;;;;;;1999.90;999.90;;;;;;;-0.11;89.40;93260.34;5113413;28;20047;-63
2023/11/26 00:19:04;;;;;;;1999.90;999.90;;;;;;;-0.15;88.47;93241.72;5113603;28;20047;-64
2023/11/26 00:21:31;;;;;;;1999.90;999.90;;;;;;;-0.19;88.21;93225.59;5113740;28;20051;-62
2023/11/26 00:24:01;;;;;;;1999.90;999.90;;;;;;;-0.24;88.55;93193.34;5113456;28;20052;-64
2023/11/26 00:26:28;;;;;;;1999.90;999.90;;;;;;;-0.23;88.36;93177.84;5113461;28;20542;-63
2023/11/26 00:28:55;;;;;;;1999.90;999.90;;;;;;;-0.24;88.70;93211.31;5113530;28;20047;-59
2023/11/26 00:31:23;;;;;;;1999.90;999.90;;;;;;;-0.24;88.50;93242.97;5113286;28;20048;-61
2023/11/26 00:33:51;;;;;;;1999.90;999.90;;;;;;;-0.22;88.59;93266.00;5113297;28;20050;-62
2023/11/26 00:36:19;;;;;;;1999.90;999.90;;;;;;;-0.20;88.22;93259.06;5112037;28;20489;-62
2023/11/26 00:38:47;;;;;;;1999.90;999.90;;;;;;;-0.16;88.74;93269.13;5117492;28;20047;-63
2023/11/26 00:41:17;;;;;;;1999.90;999.90;;;;;;;-0.15;87.16;93269.97;5117609;28;20126;-63
2023/11/26 00:43:45;;;;;;;1999.90;999.90;;;;;;;-0.15;87.58;93260.50;5117382;28;20131;-63
2023/11/26 00:46:16;;;;;;;1999.90;999.90;;;;;;;-0.07;88.03;93262.72;5117523;27;20044;-62
2023/11/26 00:48:43;;;;;;;1999.90;999.90;;;;;;;-0.10;86.88;93275.69;5117381;28;20092;-62
2023/11/26 00:51:18;;;;;;;1999.90;999.90;;;;;;;-0.13;85.62;93278.41;5117493;27;20117;-62
2023/11/26 00:53:45;;;;;;;1999.90;999.90;;;;;;;-0.14;83.97;93272.47;5117271;27;20055;-65
2023/11/26 00:56:12;;;;;;;1999.90;999.90;;;;;;;-0.08;85.34;93261.06;5117152;28;20052;-61
2023/11/26 00:58:41;;;;;;;1999.90;999.90;;;;;;;-0.11;84.18;93262.94;5117207;28;20089;-61
2023/11/26 01:01:08;;;;;;;1999.90;999.90;;;;;;;-0.09;84.37;93261.13;5117196;28;20067;-61
2023/11/26 01:03:35;;;;;;;1999.90;999.90;;;;;;;-0.14;83.58;93246.78;5116993;28;20071;-64
2023/11/26 01:06:03;;;;;;;1999.90;999.90;;;;;;;-0.15;84.19;93244.28;5117067;28;20542;-64
2023/11/26 01:08:30;;;;;;;1999.90;999.90;;;;;;;-0.09;83.73;93240.56;5117031;28;20421;-62
2023/11/26 01:10:57;;;;;;;1999.90;999.90;;;;;;;-0.13;83.37;93253.56;5117009;28;20039;-63
2023/11/26 01:13:24;;;;;;;1999.90;999.90;;;;;;;-0.05;84.04;93235.22;5116821;28;20075;-65
2023/11/26 01:15:53;;;;;;;1999.90;999.90;;;;;;;-0.06;83.01;93273.84;5116648;28;20091;-62
2023/11/26 01:18:20;;;;;;;1999.90;999.90;;;;;;;-0.08;83.22;93268.75;5116848;28;20465;-63
2023/11/26 01:20:47;;;;;;;1999.90;999.90;;;;;;;-0.06;84.42;93268.69;5116771;28;20050;-62
2023/11/26 01:23:14;;;;;;;1999.90;999.90;;;;;;;-0.14;84.85;93269.06;5116772;28;20062;-62
2023/11/26 01:25:41;;;;;;;1999.90;999.90;;;;;;;-0.20;84.61;93256.50;5116629;28;20081;-65
2023/11/26 01:28:08;;;;;;;1999.90;999.90;;;;;;;-0.23;85.08;93262.63;5116618;28;20047;-64
2023/11/26 01:30:35;;;;;;;1999.90;999.90;;;;;;;-0.20;86.04;93292.47;5116553;28;20071;-64
2023/11/26 01:33:04;;;;;;;1999.90;999.90;;;;;;;-0.26;85.62;93278.19;5116419;28;20090;-63
2023/11/26 01:35:31;;;;;;;1999.90;999.90;;;;;;;-0.20;86.35;93318.16;5116418;28;20130;-63
2023/11/26 01:37:59;;;;;;;1999.90;999.90;;;;;;;-0.23;85.79;93300.31;5116343;28;20047;-66
2023/11/26 01:40:26;;;;;;;1999.90;999.90;;;;;;;-0.29;85.64;93296.31;5116331;28;20453;-60
2023/11/26 01:42:53;;;;;;;1999.90;999.90;;;;;;;-0.32;85.14;93291.31;5116497;28;20051;-62
2023/11/26 06:17:50;;;;;;;1999.90;999.90;;;;;;;0.29;93.64;94037.53;5101577;27;1470452;-63
2023/11/26 06:20:17;;;;;;;1999.90;999.90;;;;;;;0.20;91.83;94033.56;5131366;28;20484;-61
2023/11/26 06:22:44;;;;;;;1999.90;999.90;;;;;;;0.15;91.57;94060.34;5131226;28;20043;-63
2023/11/26 06:25:11;;;;;;;1999.90;999.90;;;;;;;0.12;92.15;94057.00;5131106;28;20051;-64
2023/11/26 06:27:38;;;;;;;1999.90;999.90;;;;;;;0.15;91.85;94058.59;5131043;28;20052;-67
2023/11/26 06:30:07;;;;;;;1999.90;999.90;;;;;;;0.17;91.90;94068.84;5131106;28;20039;-63
2023/11/26 06:32:35;;;;;;;1999.90;999.90;;;;;;;0.25;91.23;94088.22;5131155;28;20048;-62
2023/11/26 06:35:03;;;;;;;1999.90;999.90;;;;;;;0.28;91.48;94097.59;5131071;28;20069;-62
2023/11/26 06:37:30;;;;;;;1999.90;999.90;;;;;;;0.30;90.91;94102.66;5130994;28;20134;-63
2023/11/26 06:39:58;;;;;;;1999.90;999.90;;;;;;;0.31;90.53;94112.91;5130877;28;20130;-62
2023/11/26 06:42:25;;;;;;;1999.90;999.90;;;;;;;0.34;90.17;94120.50;5130918;28;20043;-63
2023/11/26 06:44:52;;;;;;;1999.90;999.90;;;;;;;0.35;89.76;94134.19;5130913;28;20096;-64
2023/11/26 06:47:19;;;;;;;1999.90;999.90;;;;;;;0.39;89.52;94132.34;5130684;28;20051;-64
2023/11/26 06:49:46;;;;;;;1999.90;999.90;;;;;;;0.32;89.83;94134.28;5130898;28;20126;-59
2023/11/26 06:52:14;;;;;;;1999.90;999.90;;;;;;;0.32;88.92;94137.72;5130521;28;20053;-64
2023/11/26 06:54:41;;;;;;;1999.90;999.90;;;;;;;0.38;89.34;94152.09;5130693;28;20492;-64
2023/11/26 06:57:08;;;;;;;1999.90;999.90;;;;;;;0.39;89.15;94156.31;5130620;28;20126;-60
2023/11/26 06:59:35;;;;;;;1999.90;999.90;;;;;;;0.45;88.96;94163.00;5130528;28;20075;-63
2023/11/26 07:02:03;;;;;;;1999.90;999.90;;;;;;;0.43;88.71;94173.34;5130497;28;20054;-65
2023/11/26 07:04:30;;;;;;;1999.90;999.90;;;;;;;0.53;88.61;94183.28;5130419;28;20051;-60
2023/11/26 07:06:58;;;;;;;1999.90;999.90;;;;;;;0.56;87.93;94188.31;5130181;28;20504;-65
2023/11/26 07:09:27;;;;;;;1999.90;999.90;;;;;;;0.69;87.40;94199.84;5130416;28;20047;-62
2023/11/26 07:11:54;;;;;;;1999.90;999.90;;;;;;;0.75;86.45;94207.34;5130451;28;20039;-60
2023/11/26 07:14:22;;;;;;;1999.90;999.90;;;;;;;0.80;86.34;94221.78;5130298;28;20044;-63
2023/11/26 07:16:54;;;;;;;1999.90;999.90;;;;;;;0.84;85.72;94225.94;5127489;28;20405;-65
2023/11/26 07:19:21;;;;;;;1999.90;999.90;;;;;;;0.77;85.97;94224.47;5116373;28;20060;-62
2023/11/26 07:21:48;;;;;;;1999.90;999.90;;;;;;;0.82;86.37;94243.16;5116446;28;20135;-63
2023/11/26 07:24:15;;;;;;;1999.90;999.90;;;;;;;0.83;86.63;94253.41;5116412;28;20481;-62
2023/11/26 07:26:44;;;;;;;1999.90;999.90;;;;;;;0.85;86.27;94263.66;5116104;28;20048;-62
2023/11/26 07:29:11;;;;;;;1999.90;999.90;;;;;;;0.88;86.21;94264.34;5116408;28;20162;-60
2023/11/26 07:31:38;;;;;;;1999.90;999.90;;;;;;;1.04;87.09;94274.09;5116278;28;20048;-63
2023/11/26 07:34:06;;;;;;;1999.90;999.90;;;;;;;1.12;86.39;94287.53;5116266;28;20074;-63
2023/11/26 07:36:33;;;;;;;1999.90;999.90;;;;;;;1.30;86.57;94302.38;5116080;28;20051;-62
2023/11/26 07:39:00;;;;;;;1999.90;999.90;;;;;;;1.43;85.97;94297.59;5116249;28;20134;-62
2023/11/26 07:41:28;;;;;;;1999.90;999.90;;;;;;;1.44;86.23;94296.72;5116178;28;20050;-62
2023/11/26 07:43:57;;;;;;;1999.90;999.90;;;;;;;1.56;86.03;94310.88;5116149;28;20112;-61
2023/11/26 07:46:25;;;;;;;1999.90;999.90;;;;;;;1.57;85.15;94313.38;5115928;28;20487;-61
2023/11/26 08:23:26;;;;;;;1999.90;999.90;;;;;;;2.89;76.94;94382.09;5092015;28;20055;-61
2023/11/26 08:25:56;;;;;;;1999.90;999.90;;;;;;;2.95;76.65;94382.75;5074797;28;20066;-62
2023/11/26 08:28:27;;;;;;;1999.90;999.90;;;;;;;3.12;76.08;94393.19;5074166;28;20052;-62
2023/11/26 08:57:50;;;;;;;1999.90;999.90;;;;;;;3.49;72.90;94450.19;5074195;28;20509;-60
2023/11/26 10:20:34;;;;;;;1999.90;999.90;;;;;;;2.43;75.36;94642.06;5109074;28;20602;-61
2023/11/26 10:23:02;;;;;;;1999.90;999.90;;;;;;;2.20;74.71;94647.16;5113362;28;20051;-63
2023/11/26 10:25:29;;;;;;;1999.90;999.90;;;;;;;2.23;75.88;94647.03;5113419;28;20131;-62
2023/11/26 10:27:59;;;;;;;1999.90;999.90;;;;;;;2.11;75.34;94652.66;5113351;28;20097;-63
2023/11/26 10:30:29;;;;;;;1999.90;999.90;;;;;;;2.05;75.95;94652.88;5113261;28;20044;-61
2023/11/26 10:32:59;;;;;;;1999.90;999.90;;;;;;;2.14;74.45;94647.41;5113309;28;20097;-62
2023/11/26 10:35:26;;;;;;;1999.90;999.90;;;;;;;2.10;76.06;94632.91;5113250;28;20050;-62
2023/11/26 10:38:09;;;;;;;1999.90;999.90;;;;;;;2.02;76.20;94646.09;5113345;28;20047;-61
2023/11/26 10:40:37;;;;;;;1999.90;999.90;;;;;;;2.05;75.23;94665.75;5113174;28;20048;-62
2023/11/26 10:43:07;;;;;;;1999.90;999.90;;;;;;;1.82;76.30;94647.59;5113229;28;20047;-58
2023/11/26 10:45:35;;;;;;;1999.90;999.90;;;;;;;1.88;77.08;94667.19;5113220;28;20051;-60
2023/11/26 10:48:05;;;;;;;1999.90;999.90;;;;;;;1.97;77.24;94678.91;5113076;28;20055;-59
2023/11/26 10:50:39;;;;;;;1999.90;999.90;;;;;;;1.99;76.84;94688.28;5113112;28;20079;-61
2023/11/26 10:53:17;;;;;;;1999.90;999.90;;;;;;;2.10;74.81;94687.91;5115014;28;20146;-60
2023/11/26 10:55:49;;;;;;;1999.90;999.90;;;;;;;2.10;75.27;94689.66;5116956;28;20047;-60
2023/11/26 10:58:22;;;;;;;1999.90;999.90;;;;;;;2.08;74.51;94696.63;5116934;28;20489;-61
2023/11/26 11:00:53;;;;;;;1999.90;999.90;;;;;;;2.11;74.04;94706.81;5116947;28;20040;-61
2023/11/26 11:03:23;;;;;;;1999.90;999.90;;;;;;;2.07;73.14;94718.97;5116914;28;20048;-63
2023/11/26 11:05:52;;;;;;;1999.90;999.90;;;;;;;2.10;73.65;94725.75;5116900;28;20054;-62
2023/11/26 11:08:21;;;;;;;1999.90;999.90;;;;;;;1.91;73.14;94736.69;5116932;28;20051;-61
2023/11/26 11:11:03;;;;;;;1999.90;999.90;;;;;;;1.76;72.73;94738.91;5116720;28;20044;-64
2023/11/26 11:13:31;;;;;;;1999.90;999.90;;;;;;;1.55;74.51;94747.28;5116616;28;20054;-65
2023/11/26 11:15:58;;;;;;;1999.90;999.90;;;;;;;1.45;74.80;94733.84;5116603;28;20044;-61
2023/11/26 11:18:42;;;;;;;1999.90;999.90;;;;;;;1.55;75.50;94745.56;5116540;28;20512;-63
2023/11/26 11:21:13;;;;;;;1999.90;999.90;;;;;;;1.63;73.94;94753.88;5116489;28;20066;-63
2023/11/26 11:23:44;;;;;;;1999.90;999.90;;;;;;;1.60;73.38;94753.97;5116604;28;20093;-63
2023/11/26 11:26:14;;;;;;;1999.90;999.90;;;;;;;1.76;72.23;94746.63;5116328;28;20489;-61
2023/11/26 11:28:43;;;;;;;1999.90;999.90;;;;;;;1.90;71.79;94763.41;5116369;28;20074;-65
2023/11/26 11:31:10;;;;;;;1999.90;999.90;;;;;;;1.91;70.39;94774.53;5116309;28;20043;-64
2023/11/26 11:34:04;;;;;;;1999.90;999.90;;;;;;;1.92;69.46;94779.63;5116224;28;20112;-64
2023/11/26 11:36:54;;;;;;;1999.90;999.90;;;;;;;2.09;71.59;94789.44;5116116;28;20437;-62
2023/11/26 11:39:26;;;;;;;1999.90;999.90;;;;;;;2.20;71.04;94793.41;5116244;28;20549;-61
2023/11/26 11:42:13;;;;;;;1999.90;999.90;;;;;;;2.40;70.95;94797.88;5116144;28;20040;-62
2023/11/26 11:44:42;;;;;;;1999.90;999.90;;;;;;;2.36;68.25;94815.22;5116102;28;20446;-64
2023/11/26 11:47:10;;;;;;;1999.90;999.90;;;;;;;2.46;69.24;94820.06;5115781;28;20121;-64
2023/11/26 11:50:06;;;;;;;1999.90;999.90;;;;;;;2.48;69.12;94820.84;5115975;28;20044;-64
2023/11/26 11:52:36;;;;;;;1999.90;999.90;;;;;;;2.44;69.02;94820.09;5115899;28;20488;-62
2023/11/26 11:55:47;;;;;;;1999.90;999.90;;;;;;;2.50;68.67;94819.91;5115651;28;20043;-65
2023/11/26 11:58:14;;;;;;;1999.90;999.90;;;;;;;2.35;69.48;94839.31;5115794;28;20051;-60
2023/11/26 12:00:44;;;;;;;1999.90;999.90;;;;;;;2.30;70.49;94828.31;5115728;28;20507;-60
2023/11/26 12:03:16;;;;;;;1999.90;999.90;;;;;;;2.13;70.95;94839.16;5115533;28;20092;-62
2023/11/26 12:05:44;;;;;;;1999.90;999.90;;;;;;;2.05;70.86;94842.00;5115685;28;20393;-64
2023/11/26 12:08:14;;;;;;;1999.90;999.90;;;;;;;2.11;71.39;94849.53;5115502;28;20048;-60
2023/11/26 12:10:44;;;;;;;1999.90;999.90;;;;;;;2.29;71.22;94842.13;5115571;28;20108;-64
2023/11/26 12:13:11;;;;;;;1999.90;999.90;;;;;;;2.35;69.98;94862.53;5115473;28;20134;-62
2023/11/26 12:15:39;;;;;;;1999.90;999.90;;;;;;;2.38;69.67;94861.63;5115502;28;20050;-60
2023/11/26 12:18:07;;;;;;;1999.90;999.90;;;;;;;2.36;69.78;94868.56;5115334;28;20104;-60
2023/11/26 12:20:35;;;;;;;1999.90;999.90;;;;;;;2.37;68.16;94885.72;5115083;28;20093;-65
2023/11/26 12:23:03;;;;;;;1999.90;999.90;;;;;;;2.39;68.79;94897.72;5115134;28;20484;-64
2023/11/26 12:25:30;;;;;;;1999.90;999.90;;;;;;;2.44;68.25;94894.13;5115200;28;20054;-60
2023/11/26 12:28:07;;;;;;;1999.90;999.90;;;;;;;2.37;67.19;94903.78;5115057;28;20048;-60
2023/11/26 12:30:36;;;;;;;1999.90;999.90;;;;;;;2.46;68.15;94902.66;5115045;28;20538;-62
2023/11/26 12:33:04;;;;;;;1999.90;999.90;;;;;;;2.56;67.18;94913.53;5114975;28;20112;-62
2023/11/26 12:35:33;;;;;;;1999.90;999.90;;;;;;;2.51;66.49;94924.88;5115080;28;20054;-62
2023/11/26 12:38:00;;;;;;;1999.90;999.90;;;;;;;2.40;64.31;94934.66;5115089;28;20083;-63
2023/11/26 12:40:29;;;;;;;1999.90;999.90;;;;;;;2.47;65.56;94940.50;5114928;28;20047;-62
2023/11/26 12:42:57;;;;;;;1999.90;999.90;;;;;;;2.54;65.06;94947.16;5114944;28;20100;-62
2023/11/26 12:45:26;;;;;;;1999.90;999.90;;;;;;;2.48;64.55;94953.34;5114794;28;20127;-60
2023/11/26 12:47:54;;;;;;;1999.90;999.90;;;;;;;2.52;65.23;94959.25;5114639;28;20087;-61
2023/11/26 12:50:23;;;;;;;1999.90;999.90;;;;;;;2.51;64.84;94945.50;5114689;28;20052;-63
2023/11/26 12:52:52;;;;;;;1999.90;999.90;;;;;;;2.57;64.76;94962.53;5114632;28;20052;-64
2023/11/26 12:55:19;;;;;;;1999.90;999.90;;;;;;;2.58;63.79;94960.78;5114694;28;20058;-61
2023/11/26 12:57:47;;;;;;;1999.90;999.90;;;;;;;2.31;63.10;94953.88;5114585;28;20112;-61
2023/11/26 13:00:16;;;;;;;1999.90;999.90;;;;;;;2.30;63.99;94956.50;5114492;28;20518;-63
2023/11/26 13:02:48;;;;;;;1999.90;999.90;;;;;;;2.36;63.29;94961.47;5114415;28;20048;-65
2023/11/26 13:05:26;;;;;;;1999.90;999.90;;;;;;;2.42;64.54;94973.34;5114428;28;20443;-60
2023/11/26 13:07:55;;;;;;;1999.90;999.90;;;;;;;2.41;63.56;94969.94;5114254;28;20095;-65
2023/11/26 13:10:42;;;;;;;1999.90;999.90;;;;;;;2.44;64.67;94981.88;5114393;28;20043;-62
2023/11/26 13:13:12;;;;;;;1999.90;999.90;;;;;;;2.42;64.39;94987.09;5114308;28;20077;-62
2023/11/26 13:15:41;;;;;;;1999.90;999.90;;;;;;;2.40;63.72;95002.63;5113678;28;20051;-62
2023/11/26 13:18:12;;;;;;;1999.90;999.90;;;;;;;2.38;64.21;95016.47;5114236;28;20067;-64
2023/11/26 13:20:41;;;;;;;1999.90;999.90;;;;;;;2.32;65.01;95014.06;5113869;28;20039;-65
2023/11/26 13:23:10;;;;;;;1999.90;999.90;;;;;;;2.32;65.45;95006.34;5114100;28;20050;-63
2023/11/26 13:25:38;;;;;;;1999.90;999.90;;;;;;;2.26;65.33;95012.53;5114129;28;20073;-63
2023/11/26 13:28:07;;;;;;;1999.90;999.90;;;;;;;2.07;63.43;95020.78;5113923;28;20043;-60
2023/11/26 13:30:39;;;;;;;1999.90;999.90;;;;;;;1.98;63.98;95029.63;5114197;28;20051;-62
2023/11/26 13:33:07;;;;;;;1999.90;999.90;;;;;;;2.00;64.03;95032.19;5114046;28;20044;-62
2023/11/26 13:35:41;;;;;;;1999.90;999.90;;;;;;;1.96;63.21;95033.97;5114044;28;20118;-60
2023/11/26 13:38:10;;;;;;;1999.90;999.90;;;;;;;1.86;62.44;95050.59;5114011;28;20039;-62
2023/11/26 13:40:39;;;;;;;1999.90;999.90;;;;;;;1.92;63.97;95058.19;5113787;28;20480;-61
2023/11/26 13:43:11;;;;;;;1999.90;999.90;;;;;;;1.99;63.78;95051.13;5113826;28;20057;-64
2023/11/26 13:45:41;;;;;;;1999.90;999.90;;;;;;;2.04;63.67;95066.47;5113777;28;20047;-61
2023/11/26 13:48:12;;;;;;;1999.90;999.90;;;;;;;2.09;64.86;95064.59;5113768;28;20549;-62
2023/11/26 13:50:41;;;;;;;1999.90;999.90;;;;;;;2.16;64.89;95070.44;5113705;28;20459;-64
2023/11/26 13:53:09;;;;;;;1999.90;999.90;;;;;;;2.16;61.99;95073.84;5113731;28;20058;-62
2023/11/26 13:55:37;;;;;;;1999.90;999.90;;;;;;;2.02;60.46;95085.41;5113566;28;20055;-62
2023/11/26 13:58:07;;;;;;;1999.90;999.90;;;;;;;2.04;60.76;95090.53;5113768;28;20058;-63
2023/11/26 14:00:35;;;;;;;1999.90;999.90;;;;;;;2.03;62.55;95096.59;5113556;28;20052;-62
2023/11/26 14:03:04;;;;;;;1999.90;999.90;;;;;;;2.07;62.74;95089.59;5113504;28;20079;-61
2023/11/26 14:05:37;;;;;;;1999.90;999.90;;;;;;;2.11;63.95;95088.63;5113378;28;20100;-61
2023/11/26 14:08:07;;;;;;;1999.90;999.90;;;;;;;2.16;66.93;95093.66;5113385;28;20058;-62
2023/11/26 14:10:36;;;;;;;1999.90;999.90;;;;;;;2.06;71.11;95099.06;5113475;28;20040;-61
2023/11/26 14:13:07;;;;;;;1999.90;999.90;;;;;;;2.00;71.34;95101.81;5113457;28;20056;-63
2023/11/26 14:15:35;;;;;;;1999.90;999.90;;;;;;;1.99;69.81;95105.28;5113349;28;20048;-62
2023/11/26 14:18:04;;;;;;;1999.90;999.90;;;;;;;2.00;67.01;95109.56;5113324;28;20083;-63
2023/11/26 14:20:31;;;;;;;1999.90;999.90;;;;;;;1.70;68.04;95075.97;5113168;28;20101;-63
2023/11/26 14:22:59;;;;;;;1999.90;999.90;;;;;;;1.76;67.29;95107.59;5113400;28;20050;-62
2023/11/26 14:25:29;;;;;;;1999.90;999.90;;;;;;;1.74;67.61;95116.25;5113344;28;20077;-62
2023/11/26 14:27:56;;;;;;;1999.90;999.90;;;;;;;1.56;67.01;95118.41;5115093;28;20089;-60
2023/11/26 14:30:25;;;;;;;1999.90;999.90;;;;;;;1.41;66.08;95129.13;5117517;28;20054;-62
2023/11/26 14:32:53;;;;;;;1999.90;999.90;;;;;;;1.36;65.25;95132.63;5117449;28;20128;-61
2023/11/26 14:35:20;;;;;;;1999.90;999.90;;;;;;;1.28;66.51;95133.69;5117402;28;20053;-62
2023/11/26 14:37:48;;;;;;;1999.90;999.90;;;;;;;1.22;65.52;95137.28;5117348;28;20126;-62
2023/11/26 14:40:18;;;;;;;1999.90;999.90;;;;;;;1.14;65.46;95142.59;5117310;28;20044;-62
2023/11/26 14:42:48;;;;;;;1999.90;999.90;;;;;;;1.01;66.44;95149.75;5117394;28;20047;-61
2023/11/26 14:45:16;;;;;;;1999.90;999.90;;;;;;;0.87;67.66;95155.22;5117319;28;20083;-62
2023/11/26 14:47:44;;;;;;;1999.90;999.90;;;;;;;0.79;67.47;95162.25;5117161;28;20054;-65
2023/11/26 14:50:13;;;;;;;1999.90;999.90;;;;;;;0.68;66.76;95160.78;5117054;28;20048;-60
2023/11/26 14:52:41;;;;;;;1999.90;999.90;;;;;;;0.61;66.02;95164.34;5117006;28;20044;-60
2023/11/26 14:55:12;;;;;;;1999.90;999.90;;;;;;;0.54;66.93;95167.94;5117231;28;20460;-64
2023/11/26 14:57:40;;;;;;;1999.90;999.90;;;;;;;0.46;66.88;95175.81;5117110;28;20518;-62
2023/11/26 15:00:11;;;;;;;1999.90;999.90;;;;;;;0.40;67.56;95175.91;5116841;28;20073;-62
2023/11/26 15:02:39;;;;;;;;;;;;;;;0.41;68.27;95182.75;5117184;28;20051;-62
2023/11/26 15:05:09;;;;;;;1999.90;999.90;;;;;;;0.29;68.64;95176.13;5116907;28;19920;-61
2023/11/26 15:07:40;;;;;;;1999.90;999.90;;;;;;;0.22;68.95;95189.13;5116667;28;20132;-59
2023/11/26 15:10:08;;;;;;;1999.90;999.90;;;;;;;0.16;70.05;95190.94;5116743;28;20051;-61
2023/11/26 15:12:35;;;;;;;1999.90;999.90;;;;;;;0.12;70.50;95195.31;5116639;28;20047;-61
2023/11/26 15:15:08;;;;;;;1999.90;999.90;;;;;;;0.16;71.34;95199.53;5116588;28;20205;-62
2023/11/26 15:17:43;;;;;;;1999.90;999.90;;;;;;;0.17;71.96;95203.78;5116511;28;20090;-61
2023/11/26 15:20:12;;;;;;;1999.90;999.90;;;;;;;0.17;72.69;95203.78;5116447;28;20051;-59
2023/11/26 15:22:40;;;;;;;1999.90;999.90;;;;;;;0.18;73.28;95209.78;5116410;28;20057;-63
2023/11/26 15:25:11;;;;;;;1999.90;999.90;;;;;;;0.06;72.98;95214.25;5116450;28;20046;-63
2023/11/26 15:27:38;;;;;;;1999.90;999.90;;;;;;;-0.08;73.53;95222.22;5116282;28;20044;-64
2023/11/26 15:30:08;;;;;;;1999.90;999.90;;;;;;;-0.14;74.20;95224.91;5116352;28;20059;-60
2023/11/26 15:32:44;;;;;;;1999.90;999.90;;;;;;;-0.27;73.84;95240.50;5116315;28;20126;-61
2023/11/26 15:35:15;;;;;;;1999.90;999.90;;;;;;;-0.37;74.65;95246.66;5116229;28;20530;-61
2023/11/26 15:37:43;;;;;;;1999.90;999.90;;;;;;;-0.49;75.42;95252.03;5115934;28;20112;-65
2023/11/26 15:40:13;;;;;;;1999.90;999.90;;;;;;;-0.55;75.67;95265.78;5115859;28;20105;-64
2023/11/26 15:42:42;;;;;;;1999.90;999.90;;;;;;;-0.57;76.35;95268.38;5116077;28;20401;-62
2023/11/26 15:45:12;;;;;;;1999.90;999.90;;;;;;;-0.58;77.24;95271.81;5115976;28;20073;-60
2023/11/26 15:47:43;;;;;;;1999.90;999.90;;;;;;;-0.61;77.01;95263.31;5115904;28;20043;-64
2023/11/26 15:50:11;;;;;;;1999.90;999.90;;;;;;;-0.67;76.81;95271.94;5115867;28;20055;-60
2023/11/26 15:52:40;;;;;;;1999.90;999.90;;;;;;;-0.69;77.04;95271.97;5115821;28;20080;-62
2023/11/26 15:55:11;;;;;;;1999.90;999.90;;;;;;;-0.74;76.61;95276.34;5115810;28;20556;-61
2023/11/26 15:57:39;;;;;;;1999.90;999.90;;;;;;;-0.76;76.30;95278.06;5115733;28;20058;-60
2023/11/26 16:00:08;;;;;;;1999.90;999.90;;;;;;;-0.84;75.83;95285.84;5115603;28;20055;-61
2023/11/26 16:02:36;;;;;;;1999.90;999.90;;;;;;;-0.86;74.48;95282.47;5115623;28;20515;-63
2023/11/26 16:05:08;;;;;;;1999.90;999.90;;;;;;;-0.86;74.83;95290.19;5115603;28;20489;-62
2023/11/26 16:07:37;;;;;;;1999.90;999.90;;;;;;;-0.91;74.98;95294.50;5115517;28;20040;-60
2023/11/26 16:10:05;;;;;;;1999.90;999.90;;;;;;;-0.95;74.62;95301.41;5115478;28;20079;-60
2023/11/26 16:12:36;;;;;;;1999.90;999.90;;;;;;;-0.94;74.72;95307.38;5115364;28;20051;-64
2023/11/26 16:15:09;;;;;;;1999.90;999.90;;;;;;;-0.99;74.73;95314.31;5115542;28;20048;-62
2023/11/26 16:17:36;;;;;;;1999.90;999.90;;;;;;;-0.98;75.51;95324.56;5115237;28;20507;-62
2023/11/26 16:20:08;;;;;;;1999.90;999.90;;;;;;;-1.04;75.59;95334.91;5115109;28;20062;-62
2023/11/26 16:22:37;;;;;;;1999.90;999.90;;;;;;;-1.19;75.89;95338.50;5115142;28;20122;-60
2023/11/26 16:25:08;;;;;;;1999.90;999.90;;;;;;;-1.21;76.54;95333.38;5115220;28;20515;-60
2023/11/26 16:27:36;;;;;;;1999.90;999.90;;;;;;;-1.20;77.00;95347.91;5114915;28;20054;-61
2023/11/26 16:30:04;;;;;;;1999.90;999.90;;;;;;;-1.23;76.54;95342.81;5115170;28;20055;-63
2023/11/26 16:32:33;;;;;;;1999.90;999.90;;;;;;;-1.31;76.81;95345.47;5115148;28;20094;-61
2023/11/26 16:35:02;;;;;;;1999.90;999.90;;;;;;;-1.32;76.30;95351.44;5115045;28;20040;-62
2023/11/26 16:37:33;;;;;;;1999.90;999.90;;;;;;;-1.47;76.16;95362.72;5114958;28;20054;-59
2023/11/26 16:40:04;;;;;;;1999.90;999.90;;;;;;;-1.60;76.17;95361.16;5114930;28;20499;-60
2023/11/26 16:42:33;;;;;;;1999.90;999.90;;;;;;;-1.74;76.18;95366.38;5114890;28;20054;-60
2023/11/26 16:45:00;;;;;;;1999.90;999.90;;;;;;;-1.83;76.84;95375.88;5114757;28;20093;-61
2023/11/26 16:47:30;;;;;;;1999.90;999.90;;;;;;;-2.08;77.49;95385.44;5114803;28;20104;-61
2023/11/26 16:49:59;;;;;;;1999.90;999.90;;;;;;;-2.18;78.12;95389.75;5113970;28;20048;-60
2023/11/26 16:52:27;;;;;;;1999.90;999.90;;;;;;;-2.23;78.72;95400.03;5114814;28;20048;-59
2023/11/26 16:54:56;;;;;;;1999.90;999.90;;;;;;;-2.22;79.15;95394.06;5114718;28;20378;-61
2023/11/26 16:57:25;;;;;;;1999.90;999.90;;;;;;;-2.21;79.07;95402.59;5114615;28;20054;-60
2023/11/26 16:59:53;;;;;;;1999.90;999.90;;;;;;;-2.21;79.15;95402.59;5114454;28;20093;-62
2023/11/26 17:02:21;;;;;;;1999.90;999.90;;;;;;;-2.31;79.18;95407.78;5114467;28;20047;-60
2023/11/26 17:04:48;;;;;;;1999.90;999.90;;;;;;;-2.38;79.18;95407.81;5114422;28;20040;-64
2023/11/26 17:07:15;;;;;;;1999.90;999.90;;;;;;;-2.39;79.21;95411.22;5114369;28;20047;-62
2023/11/26 17:09:43;;;;;;;1999.90;999.90;;;;;;;-2.41;79.26;95408.66;5114358;28;20097;-60
2023/11/26 17:12:12;;;;;;;1999.90;999.90;;;;;;;-2.41;79.51;95413.78;5114256;28;20069;-60
2023/11/26 17:14:40;;;;;;;1999.90;999.90;;;;;;;-2.44;79.05;95413.84;5114240;28;20126;-62
2023/11/26 17:17:08;;;;;;;1999.90;999.90;;;;;;;-2.47;79.29;95418.97;5114175;28;20048;-61
2023/11/26 17:19:35;;;;;;;1999.90;999.90;;;;;;;-2.51;79.27;95424.94;5113950;28;20079;-61
2023/11/26 17:22:02;;;;;;;1999.90;999.90;;;;;;;-2.54;79.16;95431.78;5114247;28;20472;-59
2023/11/26 17:24:29;;;;;;;1999.90;999.90;;;;;;;-2.58;79.07;95437.81;5114281;28;20450;-61
2023/11/26 17:26:57;;;;;;;1999.90;999.90;;;;;;;-2.59;79.01;95438.63;5114152;28;20046;-60
2023/11/26 17:29:26;;;;;;;1999.90;999.90;;;;;;;-2.63;78.63;95443.78;5113964;28;20054;-64
2023/11/26 17:31:55;;;;;;;1999.90;999.90;;;;;;;-2.65;78.57;95448.91;5114039;28;20051;-62
2023/11/26 17:34:23;;;;;;;1999.90;999.90;;;;;;;-2.75;78.59;95444.66;5113923;28;20047;-63
2023/11/26 17:36:50;;;;;;;1999.90;999.90;;;;;;;-2.78;78.45;95455.78;5113957;28;20055;-61
2023/11/26 17:39:17;;;;;;;1999.90;999.90;;;;;;;-2.79;78.40;95456.63;5113868;28;20052;-63
2023/11/26 17:41:44;;;;;;;1999.90;999.90;;;;;;;-2.77;78.40;95454.91;5113837;28;20568;-63
2023/11/26 17:44:12;;;;;;;1999.90;999.90;;;;;;;-2.79;78.24;95465.16;5113865;28;20047;-60
2023/11/26 17:46:41;;;;;;;1999.90;999.90;;;;;;;-2.81;77.94;95468.59;5113746;28;20044;-63
2023/11/26 17:49:09;;;;;;;1999.90;999.90;;;;;;;-2.89;77.77;95465.19;5113510;28;20096;-63
2023/11/26 17:51:36;;;;;;;1999.90;999.90;;;;;;;-2.94;77.81;95478.00;5113642;28;20039;-62
2023/11/26 17:54:04;;;;;;;1999.90;999.90;;;;;;;-2.99;78.04;95482.25;5113636;28;20065;-63
2023/11/26 17:56:33;;;;;;;1999.90;999.90;;;;;;;-3.01;77.58;95481.44;5113687;28;20477;-62
2023/11/26 17:59:01;;;;;;;1999.90;999.90;;;;;;;-3.08;77.67;95472.91;5113556;28;20044;-64
2023/11/26 18:01:28;;;;;;;1999.90;999.90;;;;;;;-3.20;77.60;95478.88;5113447;28;20075;-64
2023/11/26 18:03:57;;;;;;;1999.90;999.90;;;;;;;-3.39;77.97;95475.50;5113509;28;20055;-60